Time;durP1;ratioP1;P1;durP2;ratioP2;P2;SDS_P1;SDS_P2;PMS_P1;PMS_P2;Temp;Humidity;BMP_temperature;BMP_pressure;BME280_temperature;BME280_humidity;BME280_pressure;Samples;Min_cycle;Max_cycle;Signal;HPM_P1;HPM_P2
2021/07/20 00:00:39;;;;;;;;;;;;;;;21.57;51.69;99941.16;5098939;28;846;-37
2021/07/20 00:03:07;;;;;;;;;;;;;;;21.71;54.88;99953.03;5099431;28;787;-36
2021/07/20 00:05:32;;;;;;;;;;;;;;;23.69;46.97;99949.16;5099154;28;859;-36
2021/07/20 00:07:59;;;;;;;;;;;;;;;23.43;46.74;99948.47;5099032;28;809;-36
2021/07/20 00:10:30;;;;;;;;;;;;;;;21.45;51.53;99940.63;5099469;28;730;-36
2021/07/20 00:12:55;;;;;;;;;;;;;;;23.03;49.77;99944.97;5098860;28;1980;-36
2021/07/20 00:15:20;;;;;;;;;;;;;;;24.07;49.35;99935.72;5099076;28;797;-36
2021/07/20 00:17:48;;;;;;;;;;;;;;;21.76;51.06;99932.81;5099010;28;871;-36
2021/07/20 00:20:14;;;;;;;;;;;;;;;21.84;54.45;99939.19;5098391;28;862;-36
2021/07/20 00:22:39;;;;;;;;;;;;;;;23.73;46.61;99937.88;5098848;28;708;-36
2021/07/20 00:25:06;;;;;;;;;;;;;;;23.63;46.52;99941.78;5099378;28;767;-38
2021/07/20 00:27:31;;;;;;;;;;;;;;;21.59;51.17;99934.63;5098319;28;1108;-36
2021/07/20 00:29:56;;;;;;;;;;;;;;;22.85;50.24;99935.34;5099017;28;740;-36
2021/07/20 00:32:22;;;;;;;;;;;;;;;24.07;47.81;99953.72;5098355;28;1971;-37
2021/07/20 00:34:47;;;;;;;;;;;;;;;22.11;50.33;99942.53;5098860;28;779;-36
2021/07/20 00:37:13;;;;;;;;;;;;;;;21.45;53.51;99945.97;5098760;28;890;-37
2021/07/20 00:39:38;;;;;;;;;;;;;;;23.56;47.05;99944.34;5099111;28;753;-37
2021/07/20 00:42:03;;;;;;;;;;;;;;;24.20;48.79;99943.22;5098155;28;958;-37
2021/07/20 00:44:29;;;;;;;;;;;;;;;21.45;51.85;99937.97;5098392;28;708;-36
2021/07/20 00:46:54;;;;;;;;;;;;;;;22.40;51.97;99941.16;5098497;28;1101;-36
2021/07/20 00:49:20;;;;;;;;;;;;;;;23.97;45.84;99949.41;5098606;28;764;-38
2021/07/20 00:51:45;;;;;;;;;;;;;;;22.41;49.43;99942.81;5087948;28;1909;-36
2021/07/20 00:54:10;;;;;;;;;;;;;;;21.02;53.03;99944.22;5078299;28;779;-36
2021/07/20 00:56:36;;;;;;;;;;;;;;;23.27;48.21;99946.72;5084493;28;943;-37
2021/07/20 00:59:01;;;;;;;;;;;;;;;24.12;48.64;99950.47;5080281;28;777;-38
2021/07/20 01:01:26;;;;;;;;;;;;;;;21.50;51.39;99943.66;5078752;28;843;-37
2021/07/20 01:03:52;;;;;;;;;;;;;;;21.90;53.80;99955.41;5080386;28;751;-36
2021/07/20 01:06:18;;;;;;;;;;;;;;;23.87;46.08;99950.69;5098353;28;829;-36
2021/07/20 01:08:43;;;;;;;;;;;;;;;23.16;47.35;99963.19;5097800;28;922;-36
2021/07/20 01:11:08;;;;;;;;;;;;;;;21.21;52.02;99947.59;5079245;28;926;-40
2021/07/20 01:13:34;;;;;;;;;;;;;;;21.61;54.56;99955.88;5080091;28;1902;-37
2021/07/20 01:15:59;;;;;;;;;;;;;;;23.58;46.39;99953.91;5080248;28;835;-21
2021/07/20 01:18:24;;;;;;;;;;;;;;;24.03;45.30;99950.53;5097867;28;831;-23
2021/07/20 01:20:50;;;;;;;;;;;;;;;21.54;51.08;99947.66;5098476;28;700;-25
2021/07/20 01:23:20;;;;;;;;;;;;;;;22.69;49.67;99953.16;5097333;28;1530;-22
2021/07/20 01:25:46;;;;;;;;;;;;;;;24.17;45.31;99950.78;5097274;28;1002;-22
2021/07/20 01:28:17;;;;;;;;;;;;;;;22.23;49.48;99951.91;5077035;28;843;-23
2021/07/20 01:30:42;;;;;;;;;;;;;;;20.77;52.64;99944.06;5077042;28;820;-24
2021/07/20 01:33:07;;;;;;;;;;;;;;;22.91;49.00;99940.00;5059475;28;1902;-39
2021/07/20 01:35:34;;;;;;;;;;;;;;;23.95;48.66;99943.41;5077454;28;840;-40
2021/07/20 01:37:59;;;;;;;;;;;;;;;21.56;50.85;99940.31;5059264;28;780;-23
2021/07/20 01:40:25;;;;;;;;;;;;;;;20.45;53.26;99932.19;5059173;28;1486;-22
2021/07/20 01:42:50;;;;;;;;;;;;;;;21.83;52.69;99950.91;5094441;28;990;-22
2021/07/20 01:45:15;;;;;;;;;;;;;;;23.74;46.07;99954.81;5097404;28;752;-22
2021/07/20 01:47:45;;;;;;;;;;;;;;;22.84;47.79;99952.41;5097235;28;996;-27
2021/07/20 01:50:10;;;;;;;;;;;;;;;21.25;52.14;99949.75;5097034;28;788;-35
2021/07/20 01:52:36;;;;;;;;;;;;;;;20.88;53.21;99954.47;5097035;28;1918;-38
2021/07/20 01:55:01;;;;;;;;;;;;;;;20.77;53.73;99960.94;5079377;28;779;-38
2021/07/20 01:57:26;;;;;;;;;;;;;;;20.70;55.33;99954.56;5097095;28;950;-40
2021/07/20 01:59:53;;;;;;;;;;;;;;;23.07;49.21;99962.41;5078182;28;857;-40
2021/07/20 02:10:09;;;;;;;;;;;;;;;20.82;55.70;99970.31;5096697;28;610;-43
2021/07/20 02:12:38;;;;;;;;;;;;;;;20.30;55.94;99965.66;5096098;28;1914;-44
2021/07/20 02:15:04;;;;;;;;;;;;;;;20.32;56.17;99968.16;5079241;28;848;-38
2021/07/20 02:17:29;;;;;;;;;;;;;;;21.38;56.62;99962.69;5078956;28;1311;-47
2021/07/20 02:19:57;;;;;;;;;;;;;;;23.51;47.58;99969.06;5078215;28;800;-40
2021/07/20 02:22:23;;;;;;;;;;;;;;;24.29;46.06;99970.00;5096946;28;820;-44
2021/07/20 02:24:49;;;;;;;;;;;;;;;24.69;47.30;99970.56;5096869;28;847;-43
2021/07/20 02:27:14;;;;;;;;;;;;;;;22.94;48.95;99974.50;5096407;28;1018;-40
2021/07/20 02:29:40;;;;;;;;;;;;;;;21.31;53.21;99982.22;5096420;28;808;-40
2021/07/20 02:32:05;;;;;;;;;;;;;;;21.04;53.98;99976.94;5096824;28;1886;-38
2021/07/20 02:34:31;;;;;;;;;;;;;;;20.71;55.22;99977.59;5078510;28;824;-36
2021/07/20 02:36:56;;;;;;;;;;;;;;;20.59;55.37;99982.38;5078788;28;764;-39
2021/07/20 02:39:21;;;;;;;;;;;;;;;20.35;56.33;99983.06;5096490;28;721;-41
2021/07/20 02:41:48;;;;;;;;;;;;;;;21.46;57.42;99979.75;5095855;28;970;-37
2021/07/20 02:44:13;;;;;;;;;;;;;;;23.67;47.74;99986.09;5096715;28;893;-39
2021/07/20 02:46:38;;;;;;;;;;;;;;;24.43;46.13;99985.31;5078702;28;803;-38
2021/07/20 02:49:03;;;;;;;;;;;;;;;24.90;47.82;99997.75;5096812;28;1322;-40
2021/07/20 02:51:29;;;;;;;;;;;;;;;22.74;50.26;99987.47;5108505;28;1971;-40
2021/07/20 02:53:55;;;;;;;;;;;;;;;21.53;53.10;99986.13;5096315;28;752;-42
2021/07/20 02:56:20;;;;;;;;;;;;;;;20.95;54.92;99994.81;5078054;28;919;-42
2021/07/20 02:58:46;;;;;;;;;;;;;;;20.74;56.02;99995.16;5096707;28;747;-39
2021/07/20 03:01:11;;;;;;;;;;;;;;;20.61;56.64;100000.91;5078076;28;752;-41
2021/07/20 03:03:36;;;;;;;;;;;;;;;20.54;56.38;99998.03;5094207;28;879;-42
2021/07/20 03:06:02;;;;;;;;;;;;;;;21.85;56.31;99992.59;5076193;28;835;-36
2021/07/20 03:08:31;;;;;;;;;;;;;;;23.84;47.26;99992.16;5074809;28;823;-40
2021/07/20 03:10:56;;;;;;;;;;;;;;;24.49;45.60;99994.47;5076276;28;1017;-43
2021/07/20 03:13:22;;;;;;;;;;;;;;;24.61;49.99;99996.75;5078099;28;1901;-42
2021/07/20 03:15:47;;;;;;;;;;;;;;;22.55;51.69;99989.53;5096114;28;784;-41
2021/07/20 03:18:12;;;;;;;;;;;;;;;21.30;54.13;99973.38;5096441;28;787;-42
2021/07/20 03:20:38;;;;;;;;;;;;;;;21.15;54.66;99973.97;5077685;28;810;-44
2021/07/20 03:23:03;;;;;;;;;;;;;;;20.76;55.19;99977.13;5078153;28;753;-42
2021/07/20 03:25:29;;;;;;;;;;;;;;;20.68;55.56;99980.59;5098528;28;755;-37
2021/07/20 03:27:54;;;;;;;;;;;;;;;20.63;56.43;99991.78;5081275;28;1029;-39
2021/07/20 03:30:19;;;;;;;;;;;;;;;21.49;57.74;99982.09;5081967;28;791;-40
2021/07/20 03:32:45;;;;;;;;;;;;;;;23.66;48.31;99995.97;5099860;28;1918;-39
2021/07/20 03:35:11;;;;;;;;;;;;;;;24.23;47.17;99995.75;5082305;28;771;-40
2021/07/20 03:37:37;;;;;;;;;;;;;;;24.62;49.36;99998.41;5099752;28;816;-43
2021/07/20 03:40:03;;;;;;;;;;;;;;;25.02;45.25;99995.47;5099548;28;800;-35
2021/07/20 03:42:29;;;;;;;;;;;;;;;24.86;46.35;100002.66;5113434;28;947;-43
2021/07/20 03:44:54;;;;;;;;;;;;;;;22.12;53.10;99998.59;5102041;28;803;-43
2021/07/20 03:47:19;;;;;;;;;;;;;;;22.23;59.93;99997.44;5101610;28;1183;-41
2021/07/20 03:49:45;;;;;;;;;;;;;;;22.49;62.40;100003.59;5119982;28;794;-39
2021/07/20 03:52:11;;;;;;;;;;;;;;;22.35;61.56;100005.97;5087991;28;1913;-42
2021/07/20 03:54:37;;;;;;;;;;;;;;;21.91;59.50;100001.78;5081679;28;772;-39
2021/07/20 03:57:02;;;;;;;;;;;;;;;21.81;59.96;99998.41;5109976;28;1010;-36
2021/07/20 03:59:28;;;;;;;;;;;;;;;23.32;59.65;99997.97;5101438;28;816;-39
2021/07/20 04:01:53;;;;;;;;;;;;;;;24.64;55.51;99999.06;5115997;28;1035;-39
2021/07/20 04:04:19;;;;;;;;;;;;;;;22.26;56.02;99998.94;5101184;28;1473;-44
2021/07/20 04:06:44;;;;;;;;;;;;;;;20.88;57.51;100002.59;5119816;28;759;-36
2021/07/20 04:09:10;;;;;;;;;;;;;;;20.62;57.90;100003.44;5101301;28;795;-41
2021/07/20 04:11:36;;;;;;;;;;;;;;;20.45;57.54;100005.19;5111664;28;1906;-36
2021/07/20 04:14:02;;;;;;;;;;;;;;;20.38;57.84;100004.97;5081525;28;811;-40
2021/07/20 04:16:27;;;;;;;;;;;;;;;20.29;57.56;100004.06;5081027;28;705;-38
2021/07/20 04:18:53;;;;;;;;;;;;;;;20.30;56.99;100007.56;5098696;28;866;-41
2021/07/20 04:21:18;;;;;;;;;;;;;;;21.73;55.70;100005.41;5080484;28;827;-44
2021/07/20 04:23:44;;;;;;;;;;;;;;;23.89;48.86;100002.38;5098903;28;772;-39
2021/07/20 04:26:09;;;;;;;;;;;;;;;24.70;47.04;100007.22;5098697;28;1020;-41
2021/07/20 04:28:35;;;;;;;;;;;;;;;24.94;48.20;100009.84;5099071;28;793;-40
2021/07/20 04:31:01;;;;;;;;;;;;;;;21.95;51.74;100007.66;5098881;28;834;-33
2021/07/20 04:33:30;;;;;;;;;;;;;;;20.76;53.84;99999.34;5080464;28;1894;-39
2021/07/20 04:35:56;;;;;;;;;;;;;;;20.12;54.06;100000.41;5098759;28;764;-33
2021/07/20 04:38:21;;;;;;;;;;;;;;;20.21;55.05;100006.66;5098833;28;775;-33
2021/07/20 04:40:47;;;;;;;;;;;;;;;20.09;55.50;100007.88;5098589;28;1002;-33
2021/07/20 04:43:12;;;;;;;;;;;;;;;20.38;55.60;100007.63;5078569;28;946;-37
2021/07/20 04:45:38;;;;;;;;;;;;;;;22.82;50.68;100014.28;5094206;28;1298;-40
2021/07/20 04:48:04;;;;;;;;;;;;;;;23.90;49.97;100010.25;5088220;28;1283;-40
2021/07/20 04:50:29;;;;;;;;;;;;;;;24.68;46.42;100006.56;5087199;28;992;-42
2021/07/20 04:52:55;;;;;;;;;;;;;;;24.97;46.30;100019.41;5118291;28;1979;-42
2021/07/20 04:55:20;;;;;;;;;;;;;;;25.36;47.31;100012.84;5100731;28;765;-39
2021/07/20 04:57:45;;;;;;;;;;;;;;;25.58;44.64;100018.25;5114932;28;867;-45
2021/07/20 05:00:11;;;;;;;;;;;;;;;25.39;47.05;100015.16;5118601;28;771;-36
2021/07/20 05:02:36;;;;;;;;;;;;;;;25.57;44.67;100013.91;5117703;28;1467;-42
2021/07/20 05:05:02;;;;;;;;;;;;;;;25.64;45.21;100009.44;5100531;28;834;-39
2021/07/20 05:07:27;;;;;;;;;;;;;;;25.85;44.18;100009.66;5099666;28;837;-43
2021/07/20 05:09:53;;;;;;;;;;;;;;;25.90;42.97;100005.38;5118354;28;874;-43
2021/07/20 05:12:18;;;;;;;;;;;;;;;25.84;42.68;100014.19;5099274;28;1969;-46
2021/07/20 05:14:43;;;;;;;;;;;;;;;26.10;42.39;100003.88;5100348;28;779;-38
2021/07/20 05:17:09;;;;;;;;;;;;;;;26.44;42.24;100010.41;5099566;28;824;-47
2021/07/20 05:19:34;;;;;;;;;;;;;;;26.59;42.07;100012.97;5118325;28;882;-37
2021/07/20 05:21:59;;;;;;;;;;;;;;;26.71;41.93;100007.03;5117899;28;815;-41
2021/07/20 05:24:25;;;;;;;;;;;;;;;26.82;41.72;100011.88;5099628;28;823;-39
2021/07/20 05:26:50;;;;;;;;;;;;;;;26.92;41.71;100019.59;5117787;28;966;-40
2021/07/20 05:29:15;;;;;;;;;;;;;;;26.99;41.67;100012.34;5099513;28;799;-36
2021/07/20 05:31:41;;;;;;;;;;;;;;;27.10;41.33;100020.97;5099900;28;1902;-37
2021/07/20 05:34:06;;;;;;;;;;;;;;;27.21;41.66;100023.09;5100251;28;783;-47
2021/07/20 05:36:31;;;;;;;;;;;;;;;27.23;41.60;100023.72;5099690;28;739;-36
2021/07/20 05:38:57;;;;;;;;;;;;;;;27.26;41.72;100017.91;5118113;28;751;-39
2021/07/20 05:41:22;;;;;;;;;;;;;;;27.32;41.61;100020.84;5116980;28;926;-37
2021/07/20 05:43:47;;;;;;;;;;;;;;;27.43;41.60;100020.25;5117542;28;775;-32
2021/07/20 05:46:12;;;;;;;;;;;;;;;27.49;41.55;100027.53;5099693;28;854;-38
2021/07/20 05:48:38;;;;;;;;;;;;;;;27.56;41.11;100024.84;5098689;28;1079;-44
2021/07/20 05:51:04;;;;;;;;;;;;;;;27.65;41.29;100028.22;5098916;28;1146;-35
2021/07/20 05:53:30;;;;;;;;;;;;;;;27.71;41.22;100029.31;5117342;28;1897;-38
2021/07/20 05:55:59;;;;;;;;;;;;;;;27.75;41.30;100028.69;5116766;28;930;-32
2021/07/20 05:58:24;;;;;;;;;;;;;;;27.74;41.14;100026.19;5117368;28;807;-38
2021/07/20 06:00:52;;;;;;;;;;;;;;;27.81;41.09;100026.22;5117495;28;823;-39
2021/07/20 06:03:18;;;;;;;;;;;;;;;27.89;41.03;100030.56;5117608;28;783;-37
2021/07/20 06:05:43;;;;;;;;;;;;;;;27.93;41.15;100024.53;5099113;28;791;-45
2021/07/20 06:08:12;;;;;;;;;;;;;;;27.94;41.05;100030.78;5098751;28;807;-47
2021/07/20 06:10:37;;;;;;;;;;;;;;;28.04;40.52;100023.13;5117409;28;771;-37
2021/07/20 06:13:02;;;;;;;;;;;;;;;28.05;40.57;100027.47;5116250;28;1968;-41
2021/07/20 06:15:27;;;;;;;;;;;;;;;28.02;40.85;100027.06;5099509;28;744;-40
2021/07/20 06:17:53;;;;;;;;;;;;;;;28.07;40.92;100027.25;5097920;28;962;-44
2021/07/20 06:20:18;;;;;;;;;;;;;;;27.93;39.56;100019.13;5116858;28;763;-44
2021/07/20 06:22:44;;;;;;;;;;;;;;;27.90;37.73;100021.41;5117520;28;875;-33
2021/07/20 06:25:10;;;;;;;;;;;;;;;27.87;39.28;100026.22;5116925;28;814;-33
2021/07/20 06:27:35;;;;;;;;;;;;;;;27.97;39.73;100022.28;5098515;28;997;-32
2021/07/20 06:30:00;;;;;;;;;;;;;;;28.10;39.92;100021.44;5097787;28;829;-33
2021/07/20 06:32:26;;;;;;;;;;;;;;;28.13;39.53;100025.63;5098571;28;1968;-40
2021/07/20 06:34:51;;;;;;;;;;;;;;;28.19;39.87;100027.47;5098717;28;760;-32
2021/07/20 06:37:17;;;;;;;;;;;;;;;28.21;40.03;100025.41;5116757;28;815;-47
2021/07/20 06:39:42;;;;;;;;;;;;;;;28.29;39.96;100025.19;5116486;28;822;-41
2021/07/20 06:42:07;;;;;;;;;;;;;;;28.31;40.16;100025.00;5116422;28;954;-37
2021/07/20 06:44:33;;;;;;;;;;;;;;;28.42;40.14;100023.53;5116819;28;767;-38
2021/07/20 06:47:00;;;;;;;;;;;;;;;28.44;40.00;100026.88;5097270;28;1171;-45
2021/07/20 06:49:25;;;;;;;;;;;;;;;28.44;40.08;100018.75;5096409;28;756;-39
2021/07/20 06:51:50;;;;;;;;;;;;;;;28.52;39.85;100025.81;5067194;28;1906;-39
2021/07/20 06:54:16;;;;;;;;;;;;;;;28.59;39.85;100022.03;5057635;28;852;-39
2021/07/20 06:56:54;;;;;;;;;;;;;;;28.60;39.96;100020.19;5083416;28;939;-46
2021/07/20 06:59:20;;;;;;;;;;;;;;;28.51;37.91;100024.16;5096702;28;799;-35
2021/07/20 07:01:45;;;;;;;;;;;;;;;28.72;38.99;100023.91;5100184;28;827;-44
2021/07/20 07:04:28;;;;;;;;;;;;;;;28.81;39.12;100026.41;5100151;28;857;-34
2021/07/20 07:06:55;;;;;;;;;;;;;;;28.74;39.23;100018.28;5100921;28;807;-41
2021/07/20 07:09:21;;;;;;;;;;;;;;;28.85;39.40;100014.94;5082225;28;912;-33
2021/07/20 07:11:46;;;;;;;;;;;;;;;28.91;39.16;100012.41;5099601;28;1905;-32
2021/07/20 07:14:12;;;;;;;;;;;;;;;29.02;39.13;100008.22;5081578;28;874;-35
2021/07/20 07:16:37;;;;;;;;;;;;;;;29.12;38.88;100007.78;5100445;28;791;-39
2021/07/20 07:19:02;;;;;;;;;;;;;;;29.09;38.34;99999.03;5081918;28;827;-47
2021/07/20 07:21:28;;;;;;;;;;;;;;;29.09;38.46;100001.75;5099965;28;783;-37
2021/07/20 07:23:53;;;;;;;;;;;;;;;29.01;38.71;100001.97;5080911;28;1007;-34
2021/07/20 07:26:19;;;;;;;;;;;;;;;29.03;38.92;99999.91;5099622;28;955;-44
2021/07/20 07:28:45;;;;;;;;;;;;;;;28.91;38.02;100004.28;5100427;28;787;-34
2021/07/20 07:31:11;;;;;;;;;;;;;;;28.17;38.75;99997.94;5081332;28;818;-33
2021/07/20 07:33:36;;;;;;;;;;;;;;;27.87;39.38;99993.78;5081263;28;1993;-47
2021/07/20 07:36:02;;;;;;;;;;;;;;;27.90;38.63;99997.09;5081314;28;807;-32
2021/07/20 07:38:27;;;;;;;;;;;;;;;27.62;39.35;99994.34;5099599;28;784;-43
2021/07/20 07:40:53;;;;;;;;;;;;;;;27.59;37.74;99993.91;5099101;28;955;-32
2021/07/20 07:43:18;;;;;;;;;;;;;;;27.47;36.98;99990.97;5099496;28;969;-41
2021/07/20 07:45:44;;;;;;;;;;;;;;;27.50;36.46;99985.16;5081397;28;792;-32
2021/07/20 07:48:11;;;;;;;;;;;;;;;27.45;38.21;99991.19;5092026;28;1294;-43
2021/07/20 07:50:36;;;;;;;;;;;;;;;27.90;38.68;99994.38;5101275;28;1079;-46
2021/07/20 07:53:01;;;;;;;;;;;;;;;28.27;38.12;99993.97;5099443;28;1974;-39
2021/07/20 07:55:27;;;;;;;;;;;;;;;28.35;38.01;99993.78;5099724;28;823;-33
2021/07/20 07:57:52;;;;;;;;;;;;;;;28.14;37.95;99989.41;5098951;28;947;-31
2021/07/20 08:00:17;;;;;;;;;;;;;;;28.24;36.94;99993.34;5080494;28;764;-31
2021/07/20 08:02:43;;;;;;;;;;;;;;;28.23;36.40;99990.84;5080337;28;980;-31
2021/07/20 08:05:08;;;;;;;;;;;;;;;27.86;36.78;99986.69;5099381;28;883;-48
2021/07/20 08:07:34;;;;;;;;;;;;;;;27.80;36.71;99984.00;5099406;28;735;-43
2021/07/20 08:09:59;;;;;;;;;;;;;;;28.06;35.57;99985.88;5099144;28;836;-39
2021/07/20 08:12:25;;;;;;;;;;;;;;;27.96;35.58;99989.00;5080559;28;1894;-32
2021/07/20 08:14:51;;;;;;;;;;;;;;;27.79;35.51;99983.19;5099415;28;826;-32
2021/07/20 08:17:16;;;;;;;;;;;;;;;27.99;35.15;99985.88;5099005;28;834;-32
2021/07/20 08:19:41;;;;;;;;;;;;;;;28.18;35.42;99985.25;5098953;28;771;-33
2021/07/20 08:22:15;;;;;;;;;;;;;;;28.32;36.28;99986.91;5080731;28;842;-41
2021/07/20 08:24:42;;;;;;;;;;;;;;;28.35;36.38;99983.81;5099345;28;765;-32
2021/07/20 08:27:12;;;;;;;;;;;;;;;28.44;36.46;99984.44;5098637;28;939;-42
2021/07/20 08:29:37;;;;;;;;;;;;;;;28.48;36.96;99988.38;5080666;28;869;-43
2021/07/20 08:32:04;;;;;;;;;;;;;;;28.51;37.17;99984.41;5080637;28;1960;-32
2021/07/20 08:34:32;;;;;;;;;;;;;;;28.55;36.92;99992.94;5098805;28;743;-38
2021/07/20 08:36:57;;;;;;;;;;;;;;;28.68;37.26;99992.91;5098726;28;780;-32
2021/07/20 08:39:23;;;;;;;;;;;;;;;28.71;37.22;99992.47;5098614;28;803;-32
2021/07/20 08:41:48;;;;;;;;;;;;;;;28.76;37.34;99981.00;5079883;28;965;-33
2021/07/20 08:44:19;;;;;;;;;;;;;;;28.83;37.48;99987.22;5098686;28;878;-42
2021/07/20 08:46:52;;;;;;;;;;;;;;;28.87;37.75;99979.53;5080402;28;862;-41
2021/07/20 08:49:26;;;;;;;;;;;;;;;28.87;37.95;99978.69;5098481;28;835;-33
2021/07/20 08:52:05;;;;;;;;;;;;;;;28.92;37.89;99976.16;5098433;28;1910;-31
2021/07/20 08:54:43;;;;;;;;;;;;;;;28.97;37.83;99984.50;5079715;28;1103;-31
2021/07/20 08:57:12;;;;;;;;;;;;;;;28.98;38.26;99974.53;5098137;28;978;-43
2021/07/20 08:59:38;;;;;;;;;;;;;;;29.09;38.01;99979.25;5098222;28;829;-39
2021/07/20 09:02:06;;;;;;;;;;;;;;;29.07;38.17;99978.63;5097781;28;822;-33
2021/07/20 09:04:39;;;;;;;;;;;;;;;29.07;38.47;99971.34;5098384;28;835;-32
2021/07/20 09:07:13;;;;;;;;;;;;;;;29.10;38.89;99978.19;5097976;28;742;-34
2021/07/20 09:09:47;;;;;;;;;;;;;;;29.13;38.66;99975.06;5080372;28;764;-34
2021/07/20 09:12:12;;;;;;;;;;;;;;;29.21;38.80;99971.28;5097930;28;1980;-35
2021/07/20 09:14:44;;;;;;;;;;;;;;;29.30;38.75;99966.44;5098103;28;900;-38
2021/07/20 09:17:17;;;;;;;;;;;;;;;29.37;38.78;99980.78;5097545;28;886;-43
2021/07/20 09:19:50;;;;;;;;;;;;;;;29.51;38.51;99983.41;5097899;28;777;-33
2021/07/20 09:22:18;;;;;;;;;;;;;;;29.49;38.55;99982.78;5079077;28;814;-32
2021/07/20 09:24:51;;;;;;;;;;;;;;;29.55;37.41;99971.91;5097573;28;860;-34
2021/07/20 09:27:22;;;;;;;;;;;;;;;29.41;36.89;99979.28;5078825;28;1005;-43
2021/07/20 09:29:47;;;;;;;;;;;;;;;29.62;36.42;99977.31;5097781;28;738;-33
2021/07/20 09:32:32;;;;;;;;;;;;;;;29.52;37.02;99974.22;5079632;28;1976;-34
2021/07/20 09:35:09;;;;;;;;;;;;;;;29.40;37.26;99971.38;5097569;28;925;-31
2021/07/20 09:37:38;;;;;;;;;;;;;;;29.51;37.24;99975.28;5097067;28;955;-32
2021/07/20 09:40:10;;;;;;;;;;;;;;;29.49;37.25;99977.38;5079030;28;1101;-34
2021/07/20 09:42:45;;;;;;;;;;;;;;;29.43;37.52;99970.94;5097069;28;958;-38
2021/07/20 09:45:11;;;;;;;;;;;;;;;29.41;37.70;99963.03;5097531;28;750;-35
2021/07/20 09:47:40;;;;;;;;;;;;;;;29.50;37.72;99968.19;5090508;28;1260;-38
2021/07/20 09:50:09;;;;;;;;;;;;;;;29.55;37.76;99966.50;5076937;28;875;-44
2021/07/20 09:52:38;;;;;;;;;;;;;;;29.58;37.48;99966.06;5094036;28;1910;-43
2021/07/20 09:55:13;;;;;;;;;;;;;;;29.61;37.50;99970.25;5097655;28;978;-43
2021/07/20 09:57:51;;;;;;;;;;;;;;;29.67;37.32;99963.94;5062438;28;876;-42
2021/07/20 10:00:18;;;;;;;;;;;;;;;29.61;37.69;99962.13;5076315;28;826;-34
2021/07/20 10:02:43;;;;;;;;;;;;;;;29.53;38.41;99965.06;5076904;28;803;-33
2021/07/20 10:05:11;;;;;;;;;;;;;;;29.51;37.17;99959.03;5076671;28;818;-37
2021/07/20 10:07:40;;;;;;;;;;;;;;;29.31;37.15;99958.09;5076757;28;867;-33
2021/07/20 10:10:05;;;;;;;;;;;;;;;29.49;37.52;99966.53;5076685;28;828;-34
2021/07/20 10:12:43;;;;;;;;;;;;;;;29.51;37.59;99965.25;5090955;28;1917;-34
2021/07/20 10:15:09;;;;;;;;;;;;;;;29.44;38.08;99957.19;5096711;28;845;-43
2021/07/20 10:17:38;;;;;;;;;;;;;;;29.52;38.17;99952.56;5096599;28;922;-33
2021/07/20 10:20:03;;;;;;;;;;;;;;;29.71;37.45;99958.94;5077718;28;840;-33
2021/07/20 10:22:30;;;;;;;;;;;;;;;29.72;37.65;99959.72;5097325;28;859;-40
2021/07/20 10:24:59;;;;;;;;;;;;;;;29.65;38.18;99957.06;5096701;28;748;-33
2021/07/20 10:27:28;;;;;;;;;;;;;;;29.53;38.35;99952.34;5096075;28;1025;-40
2021/07/20 10:30:12;;;;;;;;;;;;;;;29.68;38.33;99951.22;5096706;28;795;-33
2021/07/20 10:32:40;;;;;;;;;;;;;;;29.68;38.28;99953.91;5096766;28;1981;-33
2021/07/20 10:35:07;;;;;;;;;;;;;;;29.69;38.35;99948.31;5096717;28;787;-44
2021/07/20 10:37:36;;;;;;;;;;;;;;;29.86;38.13;99958.59;5077974;28;820;-33
2021/07/20 10:40:27;;;;;;;;;;;;;;;29.87;38.07;99954.00;5096429;28;812;-33
2021/07/20 10:43:07;;;;;;;;;;;;;;;29.78;38.42;99950.75;5092293;28;1065;-36
2021/07/20 10:45:34;;;;;;;;;;;;;;;29.96;37.66;99949.97;5096692;28;851;-34
2021/07/20 10:48:15;;;;;;;;;;;;;;;29.95;37.74;99948.28;5086472;28;1128;-45
2021/07/20 10:50:53;;;;;;;;;;;;;;;29.97;37.90;99945.34;5097311;28;1103;-36
2021/07/20 10:53:34;;;;;;;;;;;;;;;29.91;38.43;99947.09;5096723;28;1913;-43
2021/07/20 10:56:18;;;;;;;;;;;;;;;29.92;38.56;99941.44;5079637;28;1004;-45
2021/07/20 10:58:46;;;;;;;;;;;;;;;29.94;38.27;99941.22;5116317;28;898;-34
2021/07/20 11:01:11;;;;;;;;;;;;;;;29.86;38.18;99939.63;5117084;28;806;-33
2021/07/20 11:03:55;;;;;;;;;;;;;;;29.93;38.46;99934.94;5116797;28;800;-33
2021/07/20 11:06:20;;;;;;;;;;;;;;;29.89;38.34;99938.34;5116916;28;862;-37
2021/07/20 11:08:46;;;;;;;;;;;;;;;29.86;38.39;99938.78;5098218;28;818;-33
2021/07/20 11:11:18;;;;;;;;;;;;;;;29.85;38.27;99932.53;5115935;28;1524;-33
2021/07/20 11:13:45;;;;;;;;;;;;;;;29.81;38.26;99929.41;5098472;28;1910;-34
2021/07/20 11:16:10;;;;;;;;;;;;;;;29.87;38.45;99933.13;5098460;28;769;-37
2021/07/20 11:18:36;;;;;;;;;;;;;;;29.84;37.70;99930.03;5098169;28;866;-35
2021/07/20 11:21:02;;;;;;;;;;;;;;;29.75;38.62;99930.31;5098260;28;835;-34
2021/07/20 11:23:32;;;;;;;;;;;;;;;29.73;39.22;99934.31;5098443;28;813;-35
2021/07/20 11:25:57;;;;;;;;;;;;;;;29.82;39.91;99930.25;5116166;28;994;-33
2021/07/20 11:28:22;;;;;;;;;;;;;;;29.72;40.15;99933.47;5097896;28;859;-34
2021/07/20 11:30:48;;;;;;;;;;;;;;;29.85;40.21;99934.41;5115824;28;911;-35
2021/07/20 11:33:15;;;;;;;;;;;;;;;29.78;41.44;99935.28;5116461;28;1964;-33
2021/07/20 11:35:40;;;;;;;;;;;;;;;25.80;45.70;99938.34;5098216;28;811;-35
2021/07/20 11:38:12;;;;;;;;;;;;;;;23.63;47.65;99939.97;5097907;28;846;-33
2021/07/20 11:40:57;;;;;;;;;;;;;;;23.88;50.73;99931.69;5098226;28;736;-40
2021/07/20 11:43:42;;;;;;;;;;;;;;;23.56;52.34;99922.88;5075338;28;760;-32
2021/07/20 11:46:09;;;;;;;;;;;;;;;23.88;51.82;99918.28;5076349;28;1120;-31
2021/07/20 11:49:07;;;;;;;;;;;;;;;23.69;52.25;99925.81;5071793;28;1116;-32
2021/07/20 11:51:33;;;;;;;;;;;;;;;23.45;52.28;99927.69;5053837;28;1197;-44
2021/07/20 11:54:00;;;;;;;;;;;;;;;23.17;52.78;99930.00;5098426;28;1973;-42
2021/07/20 11:56:26;;;;;;;;;;;;;;;23.09;53.19;99923.66;5099129;28;993;-32
2021/07/20 11:59:10;;;;;;;;;;;;;;;23.09;53.44;99915.59;5098571;28;771;-33
2021/07/20 12:01:39;;;;;;;;;;;;;;;23.14;53.75;99917.75;5099634;28;803;-48
2021/07/20 12:04:10;;;;;;;;;;;;;;;25.25;48.98;99913.75;5099323;28;766;-43
2021/07/20 12:06:54;;;;;;;;;;;;;;;26.58;45.66;99925.00;5099548;28;759;-41
2021/07/20 12:09:34;;;;;;;;;;;;;;;26.06;44.18;99921.75;5098870;28;818;-35
2021/07/20 12:12:00;;;;;;;;;;;;;;;26.44;42.48;99920.56;5098775;28;1901;-36
2021/07/20 12:14:25;;;;;;;;;;;;;;;26.18;42.88;99914.78;5098509;28;750;-48
2021/07/20 12:16:52;;;;;;;;;;;;;;;26.27;42.16;99905.53;5099083;28;841;-35
2021/07/20 12:19:24;;;;;;;;;;;;;;;23.82;47.96;99921.69;5099044;28;762;-39
2021/07/20 12:21:50;;;;;;;;;;;;;;;22.98;50.75;99916.84;5099209;28;827;-39
2021/07/20 12:24:15;;;;;;;;;;;;;;;22.64;52.17;99917.97;5097791;28;1353;-33
2021/07/20 12:26:40;;;;;;;;;;;;;;;24.97;46.59;99912.63;5098773;28;968;-39
2021/07/20 12:29:07;;;;;;;;;;;;;;;25.93;44.24;99912.53;5097164;28;1170;-42
2021/07/20 12:31:32;;;;;;;;;;;;;;;26.36;42.97;99922.38;5098560;28;946;-36
2021/07/20 12:33:58;;;;;;;;;;;;;;;27.00;41.57;99911.47;5098914;28;1901;-39
2021/07/20 12:36:23;;;;;;;;;;;;;;;27.63;40.25;99912.25;5098576;28;830;-33
2021/07/20 12:39:04;;;;;;;;;;;;;;;27.92;39.55;99911.22;5098380;28;949;-38
2021/07/20 12:41:29;;;;;;;;;;;;;;;28.06;39.22;99910.16;5098297;28;1000;-40
2021/07/20 12:43:55;;;;;;;;;;;;;;;28.38;38.54;99911.41;5097050;28;847;-43
2021/07/20 12:46:20;;;;;;;;;;;;;;;28.57;38.50;99901.56;5097010;28;793;-34
2021/07/20 12:48:46;;;;;;;;;;;;;;;28.67;38.55;99901.09;5100544;28;1091;-33
2021/07/20 12:51:12;;;;;;;;;;;;;;;28.91;37.69;99901.44;5113327;28;1115;-33
2021/07/20 12:53:38;;;;;;;;;;;;;;;29.00;37.63;99891.19;5098544;28;1914;-43
2021/07/20 12:56:03;;;;;;;;;;;;;;;29.10;37.56;99896.97;5099974;28;990;-33
2021/07/20 12:58:29;;;;;;;;;;;;;;;29.21;36.91;99898.97;5118782;28;775;-41
2021/07/20 13:00:54;;;;;;;;;;;;;;;29.27;36.95;99896.44;5099804;28;1205;-41
2021/07/20 13:03:20;;;;;;;;;;;;;;;29.36;36.75;99897.88;5100209;28;894;-42
2021/07/20 13:05:45;;;;;;;;;;;;;;;29.39;36.44;99893.88;5100062;28;1230;-33
2021/07/20 13:08:17;;;;;;;;;;;;;;;29.55;36.47;99898.75;5118762;28;728;-34
2021/07/20 13:10:42;;;;;;;;;;;;;;;29.60;36.76;99898.13;5118583;28;763;-33